sensor_id;sensor_type;location;lat;lon;timestamp;temperature;humidity
13086;DHT22;6609;49.882;8.664;2022-12-18T00:01:32;-5.40;74.00
13086;DHT22;6609;49.882;8.664;2022-12-18T00:04:00;-5.40;74.50
13086;DHT22;6609;49.882;8.664;2022-12-18T00:06:32;-5.50;73.80
13086;DHT22;6609;49.882;8.664;2022-12-18T00:09:00;-5.40;74.30
13086;DHT22;6609;49.882;8.664;2022-12-18T00:11:28;-5.50;73.30
13086;DHT22;6609;49.882;8.664;2022-12-18T00:13:57;-5.60;73.80
13086;DHT22;6609;49.882;8.664;2022-12-18T00:16:25;-5.60;73.70
13086;DHT22;6609;49.882;8.664;2022-12-18T00:18:56;-5.10;74.60
13086;DHT22;6609;49.882;8.664;2022-12-18T00:21:24;-5.50;73.30
13086;DHT22;6609;49.882;8.664;2022-12-18T00:23:51;-5.20;74.10
13086;DHT22;6609;49.882;8.664;2022-12-18T00:26:20;-5.50;73.10
13086;DHT22;6609;49.882;8.664;2022-12-18T00:28:47;-5.60;73.10
13086;DHT22;6609;49.882;8.664;2022-12-18T00:31:16;-5.70;72.70
13086;DHT22;6609;49.882;8.664;2022-12-18T00:33:44;-5.70;73.10
13086;DHT22;6609;49.882;8.664;2022-12-18T00:36:13;-5.70;73.10
13086;DHT22;6609;49.882;8.664;2022-12-18T00:38:41;-5.80;72.70
13086;DHT22;6609;49.882;8.664;2022-12-18T00:43:35;-5.80;73.00
13086;DHT22;6609;49.882;8.664;2022-12-18T00:46:01;-5.30;74.00
13086;DHT22;6609;49.882;8.664;2022-12-18T00:48:28;-5.70;73.00
13086;DHT22;6609;49.882;8.664;2022-12-18T00:50:55;-5.70;73.70
13086;DHT22;6609;49.882;8.664;2022-12-18T00:53:23;-5.70;73.20
13086;DHT22;6609;49.882;8.664;2022-12-18T00:55:50;-5.70;73.30
13086;DHT22;6609;49.882;8.664;2022-12-18T00:58:17;-5.60;72.70
13086;DHT22;6609;49.882;8.664;2022-12-18T01:00:44;-5.60;72.60
13086;DHT22;6609;49.882;8.664;2022-12-18T01:03:13;-5.60;72.40
13086;DHT22;6609;49.882;8.664;2022-12-18T01:05:44;-5.60;72.30
13086;DHT22;6609;49.882;8.664;2022-12-18T01:08:10;-5.50;72.00
13086;DHT22;6609;49.882;8.664;2022-12-18T01:10:41;-5.20;72.70
13086;DHT22;6609;49.882;8.664;2022-12-18T01:13:08;-5.60;72.40
13086;DHT22;6609;49.882;8.664;2022-12-18T01:15:35;-6.10;71.30
13086;DHT22;6609;49.882;8.664;2022-12-18T01:18:01;-5.60;72.30
13086;DHT22;6609;49.882;8.664;2022-12-18T01:20:28;-5.60;71.50
13086;DHT22;6609;49.882;8.664;2022-12-18T01:22:55;-5.60;71.30
13086;DHT22;6609;49.882;8.664;2022-12-18T01:25:21;-5.60;71.20
13086;DHT22;6609;49.882;8.664;2022-12-18T01:27:50;-5.50;71.30
13086;DHT22;6609;49.882;8.664;2022-12-18T01:30:17;-5.30;72.00
13086;DHT22;6609;49.882;8.664;2022-12-18T01:35:10;-5.60;70.70
13086;DHT22;6609;49.882;8.664;2022-12-18T01:37:37;-5.70;71.20
13086;DHT22;6609;49.882;8.664;2022-12-18T01:40:05;-5.80;71.40
13086;DHT22;6609;49.882;8.664;2022-12-18T01:42:32;-5.90;71.50
13086;DHT22;6609;49.882;8.664;2022-12-18T01:45:06;-5.90;71.70
13086;DHT22;6609;49.882;8.664;2022-12-18T01:47:39;-6.00;71.20
13086;DHT22;6609;49.882;8.664;2022-12-18T01:50:10;-6.00;70.90
13086;DHT22;6609;49.882;8.664;2022-12-18T01:52:38;-5.90;71.60
13086;DHT22;6609;49.882;8.664;2022-12-18T01:55:08;-5.90;71.60
13086;DHT22;6609;49.882;8.664;2022-12-18T01:57:36;-5.90;71.10
13086;DHT22;6609;49.882;8.664;2022-12-18T02:02:35;-5.90;70.90
13086;DHT22;6609;49.882;8.664;2022-12-18T02:05:03;-5.90;71.60
13086;DHT22;6609;49.882;8.664;2022-12-18T02:07:37;-5.90;71.60
13086;DHT22;6609;49.882;8.664;2022-12-18T02:10:12;-5.50;71.90
13086;DHT22;6609;49.882;8.664;2022-12-18T02:12:45;-5.40;71.80
13086;DHT22;6609;49.882;8.664;2022-12-18T02:15:19;-5.80;70.60
13086;DHT22;6609;49.882;8.664;2022-12-18T02:17:53;-5.80;70.50
13086;DHT22;6609;49.882;8.664;2022-12-18T02:20:25;-5.70;71.10
13086;DHT22;6609;49.882;8.664;2022-12-18T02:23:09;-5.70;70.90
13086;DHT22;6609;49.882;8.664;2022-12-18T02:25:52;-5.80;70.20
13086;DHT22;6609;49.882;8.664;2022-12-18T02:28:20;-5.80;70.20
13086;DHT22;6609;49.882;8.664;2022-12-18T02:30:51;-5.80;70.80
13086;DHT22;6609;49.882;8.664;2022-12-18T02:33:21;-5.80;70.10
13086;DHT22;6609;49.882;8.664;2022-12-18T02:35:48;-5.80;70.10
13086;DHT22;6609;49.882;8.664;2022-12-18T02:38:17;-5.70;70.20
13086;DHT22;6609;49.882;8.664;2022-12-18T02:40:44;-5.80;70.00
13086;DHT22;6609;49.882;8.664;2022-12-18T02:43:15;-5.70;70.60
13086;DHT22;6609;49.882;8.664;2022-12-18T02:48:22;-5.80;69.80
13086;DHT22;6609;49.882;8.664;2022-12-18T02:50:59;-5.80;70.40
13086;DHT22;6609;49.882;8.664;2022-12-18T02:53:33;-5.80;70.30
13086;DHT22;6609;49.882;8.664;2022-12-18T02:56:07;-5.90;69.40
13086;DHT22;6609;49.882;8.664;2022-12-18T02:58:47;-5.90;69.70
13086;DHT22;6609;49.882;8.664;2022-12-18T03:01:24;-5.90;70.30
13086;DHT22;6609;49.882;8.664;2022-12-18T03:03:55;-6.00;68.70
13086;DHT22;6609;49.882;8.664;2022-12-18T03:06:26;-5.80;69.70
13086;DHT22;6609;49.882;8.664;2022-12-18T03:08:58;-6.20;69.10
13086;DHT22;6609;49.882;8.664;2022-12-18T03:11:26;-6.20;70.20
13086;DHT22;6609;49.882;8.664;2022-12-18T03:14:11;-6.20;69.80
13086;DHT22;6609;49.882;8.664;2022-12-18T03:16:40;-6.20;69.60
13086;DHT22;6609;49.882;8.664;2022-12-18T03:19:11;-6.20;69.50
13086;DHT22;6609;49.882;8.664;2022-12-18T03:21:44;-5.90;70.40
13086;DHT22;6609;49.882;8.664;2022-12-18T03:24:12;-6.10;70.20
13086;DHT22;6609;49.882;8.664;2022-12-18T03:26:42;-6.10;69.70
13086;DHT22;6609;49.882;8.664;2022-12-18T03:29:16;-5.90;70.20
13086;DHT22;6609;49.882;8.664;2022-12-18T03:31:49;-5.80;70.10
13086;DHT22;6609;49.882;8.664;2022-12-18T03:34:23;-6.20;69.40
13086;DHT22;6609;49.882;8.664;2022-12-18T03:36:51;-5.90;70.40
13086;DHT22;6609;49.882;8.664;2022-12-18T03:39:19;-6.00;70.00
13086;DHT22;6609;49.882;8.664;2022-12-18T03:41:51;-6.20;69.30
13086;DHT22;6609;49.882;8.664;2022-12-18T03:44:21;-6.20;70.00
13086;DHT22;6609;49.882;8.664;2022-12-18T03:46:58;-6.30;70.00
13086;DHT22;6609;49.882;8.664;2022-12-18T03:49:34;-6.30;69.20
13086;DHT22;6609;49.882;8.664;2022-12-18T03:52:03;-5.90;70.10
13086;DHT22;6609;49.882;8.664;2022-12-18T03:54:31;-6.30;69.30
13086;DHT22;6609;49.882;8.664;2022-12-18T03:57:05;-6.30;69.10
13086;DHT22;6609;49.882;8.664;2022-12-18T03:59:35;-6.30;69.70
13086;DHT22;6609;49.882;8.664;2022-12-18T04:02:04;-6.40;68.80
13086;DHT22;6609;49.882;8.664;2022-12-18T04:04:34;-6.10;69.60
13086;DHT22;6609;49.882;8.664;2022-12-18T04:07:02;-6.50;68.90
13086;DHT22;6609;49.882;8.664;2022-12-18T04:09:30;-6.60;68.20
13086;DHT22;6609;49.882;8.664;2022-12-18T04:11:58;-6.30;69.10
13086;DHT22;6609;49.882;8.664;2022-12-18T04:14:25;-6.60;68.90
13086;DHT22;6609;49.882;8.664;2022-12-18T04:16:53;-6.60;68.90
13086;DHT22;6609;49.882;8.664;2022-12-18T04:19:19;-6.70;68.10
13086;DHT22;6609;49.882;8.664;2022-12-18T04:21:46;-6.40;68.80
13086;DHT22;6609;49.882;8.664;2022-12-18T04:24:13;-6.60;68.10
13086;DHT22;6609;49.882;8.664;2022-12-18T04:26:40;-6.70;67.80
13086;DHT22;6609;49.882;8.664;2022-12-18T04:29:06;-6.70;68.30
13086;DHT22;6609;49.882;8.664;2022-12-18T04:31:33;-6.70;68.10
13086;DHT22;6609;49.882;8.664;2022-12-18T04:34:01;-6.70;68.10
13086;DHT22;6609;49.882;8.664;2022-12-18T04:36:28;-6.90;67.60
13086;DHT22;6609;49.882;8.664;2022-12-18T04:38:55;-6.80;67.60
13086;DHT22;6609;49.882;8.664;2022-12-18T04:41:22;-6.90;67.70
13086;DHT22;6609;49.882;8.664;2022-12-18T04:43:49;-6.80;68.40
13086;DHT22;6609;49.882;8.664;2022-12-18T04:46:15;-6.80;67.80
13086;DHT22;6609;49.882;8.664;2022-12-18T04:48:45;-6.80;67.70
13086;DHT22;6609;49.882;8.664;2022-12-18T04:51:14;-6.60;68.40
13086;DHT22;6609;49.882;8.664;2022-12-18T04:53:40;-6.80;67.60
13086;DHT22;6609;49.882;8.664;2022-12-18T04:56:09;-6.70;68.00
13086;DHT22;6609;49.882;8.664;2022-12-18T04:58:37;-6.90;67.40
13086;DHT22;6609;49.882;8.664;2022-12-18T05:01:04;-7.00;68.00
13086;DHT22;6609;49.882;8.664;2022-12-18T05:03:33;-7.00;67.90
13086;DHT22;6609;49.882;8.664;2022-12-18T05:06:00;-7.00;67.80
13086;DHT22;6609;49.882;8.664;2022-12-18T05:08:28;-7.00;67.10
13086;DHT22;6609;49.882;8.664;2022-12-18T05:10:59;-7.00;66.90
13086;DHT22;6609;49.882;8.664;2022-12-18T05:13:26;-7.10;66.80
13086;DHT22;6609;49.882;8.664;2022-12-18T05:15:53;-7.10;67.50
13086;DHT22;6609;49.882;8.664;2022-12-18T05:18:20;-7.10;66.80
13086;DHT22;6609;49.882;8.664;2022-12-18T05:20:49;-7.10;67.60
13086;DHT22;6609;49.882;8.664;2022-12-18T05:23:16;-7.10;67.60
13086;DHT22;6609;49.882;8.664;2022-12-18T05:25:47;-6.60;68.00
13086;DHT22;6609;49.882;8.664;2022-12-18T05:28:14;-7.10;66.90
13086;DHT22;6609;49.882;8.664;2022-12-18T05:30:40;-7.10;66.90
13086;DHT22;6609;49.882;8.664;2022-12-18T05:33:07;-6.60;67.90
13086;DHT22;6609;49.882;8.664;2022-12-18T05:35:34;-7.10;67.30
13086;DHT22;6609;49.882;8.664;2022-12-18T05:38:00;-7.20;66.60
13086;DHT22;6609;49.882;8.664;2022-12-18T05:40:27;-6.80;67.60
13086;DHT22;6609;49.882;8.664;2022-12-18T05:42:55;-6.80;67.40
13086;DHT22;6609;49.882;8.664;2022-12-18T05:45:22;-7.20;66.60
13086;DHT22;6609;49.882;8.664;2022-12-18T05:47:49;-7.30;66.50
13086;DHT22;6609;49.882;8.664;2022-12-18T05:50:16;-6.90;67.30
13086;DHT22;6609;49.882;8.664;2022-12-18T05:52:42;-7.20;67.00
13086;DHT22;6609;49.882;8.664;2022-12-18T05:55:09;-7.20;67.10
13086;DHT22;6609;49.882;8.664;2022-12-18T05:57:36;-7.20;66.30
13086;DHT22;6609;49.882;8.664;2022-12-18T06:00:05;-7.00;67.10
13086;DHT22;6609;49.882;8.664;2022-12-18T06:04:59;-7.20;66.40
13086;DHT22;6609;49.882;8.664;2022-12-18T06:07:26;-7.10;67.00
13086;DHT22;6609;49.882;8.664;2022-12-18T06:09:52;-7.10;67.10
13086;DHT22;6609;49.882;8.664;2022-12-18T06:12:19;-7.10;67.20
13086;DHT22;6609;49.882;8.664;2022-12-18T06:14:46;-7.00;66.80
13086;DHT22;6609;49.882;8.664;2022-12-18T06:17:14;-6.90;66.90
13086;DHT22;6609;49.882;8.664;2022-12-18T06:19:41;-6.80;67.60
13086;DHT22;6609;49.882;8.664;2022-12-18T06:22:08;-6.80;66.80
13086;DHT22;6609;49.882;8.664;2022-12-18T06:24:34;-6.80;67.40
13086;DHT22;6609;49.882;8.664;2022-12-18T06:27:01;-6.80;67.20
13086;DHT22;6609;49.882;8.664;2022-12-18T06:29:32;-6.80;67.10
13086;DHT22;6609;49.882;8.664;2022-12-18T06:31:58;-6.60;67.40
13086;DHT22;6609;49.882;8.664;2022-12-18T06:34:27;-6.50;67.70
13086;DHT22;6609;49.882;8.664;2022-12-18T06:36:53;-6.80;67.50
13086;DHT22;6609;49.882;8.664;2022-12-18T06:39:20;-7.00;66.80
13086;DHT22;6609;49.882;8.664;2022-12-18T06:41:47;-7.00;66.80
13086;DHT22;6609;49.882;8.664;2022-12-18T06:44:13;-7.00;66.60
13086;DHT22;6609;49.882;8.664;2022-12-18T06:46:40;-7.00;66.80
13086;DHT22;6609;49.882;8.664;2022-12-18T06:49:07;-6.50;67.70
13086;DHT22;6609;49.882;8.664;2022-12-18T06:51:36;-7.10;66.60
13086;DHT22;6609;49.882;8.664;2022-12-18T06:56:30;-7.00;66.50
13086;DHT22;6609;49.882;8.664;2022-12-18T06:58:57;-7.00;66.50
13086;DHT22;6609;49.882;8.664;2022-12-18T07:01:24;-6.80;67.20
13086;DHT22;6609;49.882;8.664;2022-12-18T07:03:52;-7.00;67.00
13086;DHT22;6609;49.882;8.664;2022-12-18T07:06:21;-7.00;67.30
13086;DHT22;6609;49.882;8.664;2022-12-18T07:08:50;-7.00;66.60
13086;DHT22;6609;49.882;8.664;2022-12-18T07:11:25;-6.90;66.80
13086;DHT22;6609;49.882;8.664;2022-12-18T07:13:52;-6.80;67.00
13086;DHT22;6609;49.882;8.664;2022-12-18T07:16:20;-6.80;67.10
13086;DHT22;6609;49.882;8.664;2022-12-18T07:21:16;-6.50;67.60
13086;DHT22;6609;49.882;8.664;2022-12-18T07:23:43;-6.40;68.30
13086;DHT22;6609;49.882;8.664;2022-12-18T07:26:16;-6.00;68.70
13086;DHT22;6609;49.882;8.664;2022-12-18T07:28:43;-6.30;67.70
13086;DHT22;6609;49.882;8.664;2022-12-18T07:31:11;-5.80;68.70
13086;DHT22;6609;49.882;8.664;2022-12-18T07:33:39;-6.20;67.80
13086;DHT22;6609;49.882;8.664;2022-12-18T07:36:07;-6.10;68.60
13086;DHT22;6609;49.882;8.664;2022-12-18T07:38:34;-6.20;68.00
13086;DHT22;6609;49.882;8.664;2022-12-18T07:41:02;-5.70;68.90
13086;DHT22;6609;49.882;8.664;2022-12-18T07:43:30;-5.90;69.00
13086;DHT22;6609;49.882;8.664;2022-12-18T07:46:06;-6.10;68.20
13086;DHT22;6609;49.882;8.664;2022-12-18T07:48:33;-6.10;68.30
13086;DHT22;6609;49.882;8.664;2022-12-18T07:50:59;-6.10;69.00
13086;DHT22;6609;49.882;8.664;2022-12-18T07:53:27;-6.00;68.60
13086;DHT22;6609;49.882;8.664;2022-12-18T07:58:25;-5.80;68.70
13086;DHT22;6609;49.882;8.664;2022-12-18T08:03:21;-5.80;68.70
13086;DHT22;6609;49.882;8.664;2022-12-18T08:05:48;-5.70;69.50
13086;DHT22;6609;49.882;8.664;2022-12-18T08:08:15;-5.70;69.10
13086;DHT22;6609;49.882;8.664;2022-12-18T08:10:42;-5.70;69.30
13086;DHT22;6609;49.882;8.664;2022-12-18T08:13:09;-5.00;70.50
13086;DHT22;6609;49.882;8.664;2022-12-18T08:15:36;-5.40;70.90
13086;DHT22;6609;49.882;8.664;2022-12-18T08:18:04;-5.30;70.20
13086;DHT22;6609;49.882;8.664;2022-12-18T08:20:31;-5.30;69.60
13086;DHT22;6609;49.882;8.664;2022-12-18T08:22:57;-5.20;69.60
13086;DHT22;6609;49.882;8.664;2022-12-18T08:27:53;-5.00;69.70
13086;DHT22;6609;49.882;8.664;2022-12-18T08:30:22;-5.00;71.10
13086;DHT22;6609;49.882;8.664;2022-12-18T08:32:51;-4.90;70.00
13086;DHT22;6609;49.882;8.664;2022-12-18T08:35:19;-4.90;70.10
13086;DHT22;6609;49.882;8.664;2022-12-18T08:37:46;-4.80;70.80
13086;DHT22;6609;49.882;8.664;2022-12-18T08:40:13;-4.70;70.30
13086;DHT22;6609;49.882;8.664;2022-12-18T08:42:39;-4.60;71.00
13086;DHT22;6609;49.882;8.664;2022-12-18T08:45:24;-4.20;71.20
13086;DHT22;6609;49.882;8.664;2022-12-18T08:47:51;-4.50;71.10
13086;DHT22;6609;49.882;8.664;2022-12-18T08:50:19;-4.40;70.90
13086;DHT22;6609;49.882;8.664;2022-12-18T08:52:46;-4.30;70.90
13086;DHT22;6609;49.882;8.664;2022-12-18T08:55:13;-4.10;70.80
13086;DHT22;6609;49.882;8.664;2022-12-18T08:57:40;-4.10;70.60
13086;DHT22;6609;49.882;8.664;2022-12-18T09:00:08;-4.00;70.60
13086;DHT22;6609;49.882;8.664;2022-12-18T09:02:34;-3.90;71.10
13086;DHT22;6609;49.882;8.664;2022-12-18T09:05:01;-3.90;70.90
13086;DHT22;6609;49.882;8.664;2022-12-18T09:07:29;-3.90;71.20
13086;DHT22;6609;49.882;8.664;2022-12-18T09:09:56;-3.80;70.80
13086;DHT22;6609;49.882;8.664;2022-12-18T09:12:23;-3.60;71.60
13086;DHT22;6609;49.882;8.664;2022-12-18T09:14:49;-3.50;71.10
13086;DHT22;6609;49.882;8.664;2022-12-18T09:17:17;-3.30;71.00
13086;DHT22;6609;49.882;8.664;2022-12-18T09:19:44;-3.00;70.30
13086;DHT22;6609;49.882;8.664;2022-12-18T09:22:11;-2.70;71.00
13086;DHT22;6609;49.882;8.664;2022-12-18T09:24:39;-2.00;72.80
13086;DHT22;6609;49.882;8.664;2022-12-18T09:27:05;-1.00;72.20
13086;DHT22;6609;49.882;8.664;2022-12-18T09:29:32;0.00;71.60
13086;DHT22;6609;49.882;8.664;2022-12-18T09:31:59;0.90;68.10
13086;DHT22;6609;49.882;8.664;2022-12-18T09:34:26;1.50;67.30
13086;DHT22;6609;49.882;8.664;2022-12-18T09:36:53;2.20;66.30
13086;DHT22;6609;49.882;8.664;2022-12-18T09:39:19;3.10;64.80
13086;DHT22;6609;49.882;8.664;2022-12-18T09:41:50;4.30;57.70
13086;DHT22;6609;49.882;8.664;2022-12-18T09:44:26;4.30;58.30
13086;DHT22;6609;49.882;8.664;2022-12-18T09:47:01;5.00;53.80
13086;DHT22;6609;49.882;8.664;2022-12-18T09:49:31;5.00;53.50
13086;DHT22;6609;49.882;8.664;2022-12-18T09:52:11;5.40;51.60
13086;DHT22;6609;49.882;8.664;2022-12-18T09:54:41;5.70;48.60
13086;DHT22;6609;49.882;8.664;2022-12-18T09:57:14;5.80;47.20
13086;DHT22;6609;49.882;8.664;2022-12-18T09:59:43;5.90;45.60
13086;DHT22;6609;49.882;8.664;2022-12-18T10:02:17;5.90;44.30
13086;DHT22;6609;49.882;8.664;2022-12-18T10:04:50;5.90;43.10
13086;DHT22;6609;49.882;8.664;2022-12-18T10:07:24;5.90;39.60
13086;DHT22;6609;49.882;8.664;2022-12-18T10:09:58;6.00;39.60
13086;DHT22;6609;49.882;8.664;2022-12-18T10:12:34;5.60;39.00
13086;DHT22;6609;49.882;8.664;2022-12-18T10:15:10;5.60;39.30
13086;DHT22;6609;49.882;8.664;2022-12-18T10:17:45;5.40;39.00
13086;DHT22;6609;49.882;8.664;2022-12-18T10:20:16;5.10;38.80
13086;DHT22;6609;49.882;8.664;2022-12-18T10:22:55;5.10;39.80
13086;DHT22;6609;49.882;8.664;2022-12-18T10:25:25;5.10;38.80
13086;DHT22;6609;49.882;8.664;2022-12-18T10:27:58;5.00;38.80
13086;DHT22;6609;49.882;8.664;2022-12-18T10:30:26;4.70;37.70
13086;DHT22;6609;49.882;8.664;2022-12-18T10:32:53;4.60;38.40
13086;DHT22;6609;49.882;8.664;2022-12-18T10:35:23;4.50;38.30
13086;DHT22;6609;49.882;8.664;2022-12-18T10:38:02;4.20;38.60
13086;DHT22;6609;49.882;8.664;2022-12-18T10:40:29;3.70;38.50
13086;DHT22;6609;49.882;8.664;2022-12-18T10:43:12;3.20;39.60
13086;DHT22;6609;49.882;8.664;2022-12-18T10:45:40;2.90;40.00
13086;DHT22;6609;49.882;8.664;2022-12-18T10:48:18;2.40;41.00
13086;DHT22;6609;49.882;8.664;2022-12-18T10:50:48;2.20;42.10
13086;DHT22;6609;49.882;8.664;2022-12-18T10:53:20;1.90;42.50
13086;DHT22;6609;49.882;8.664;2022-12-18T10:55:48;1.60;42.00
13086;DHT22;6609;49.882;8.664;2022-12-18T10:58:25;1.40;43.00
13086;DHT22;6609;49.882;8.664;2022-12-18T11:01:14;1.30;44.60
13086;DHT22;6609;49.882;8.664;2022-12-18T11:03:43;1.10;45.10
13086;DHT22;6609;49.882;8.664;2022-12-18T11:06:12;0.90;45.80
13086;DHT22;6609;49.882;8.664;2022-12-18T11:08:39;0.90;45.40
13086;DHT22;6609;49.882;8.664;2022-12-18T11:11:14;0.90;45.40
13086;DHT22;6609;49.882;8.664;2022-12-18T11:13:52;0.90;45.80
13086;DHT22;6609;49.882;8.664;2022-12-18T11:16:23;1.40;46.20
13086;DHT22;6609;49.882;8.664;2022-12-18T11:18:50;1.40;46.10
13086;DHT22;6609;49.882;8.664;2022-12-18T11:21:16;1.70;46.10
13086;DHT22;6609;49.882;8.664;2022-12-18T11:23:47;1.90;46.00
13086;DHT22;6609;49.882;8.664;2022-12-18T11:26:15;1.90;46.60
13086;DHT22;6609;49.882;8.664;2022-12-18T11:28:45;1.70;46.80
13086;DHT22;6609;49.882;8.664;2022-12-18T11:33:59;1.30;46.80
13086;DHT22;6609;49.882;8.664;2022-12-18T11:36:31;0.60;47.70
13086;DHT22;6609;49.882;8.664;2022-12-18T11:39:03;0.50;48.30
13086;DHT22;6609;49.882;8.664;2022-12-18T11:41:34;0.20;48.60
13086;DHT22;6609;49.882;8.664;2022-12-18T11:44:25;0.00;49.70
13086;DHT22;6609;49.882;8.664;2022-12-18T11:46:57;-0.20;49.40
13086;DHT22;6609;49.882;8.664;2022-12-18T11:49:29;-0.20;51.60
13086;DHT22;6609;49.882;8.664;2022-12-18T11:52:01;-0.40;51.10
13086;DHT22;6609;49.882;8.664;2022-12-18T11:54:29;-0.40;51.40
13086;DHT22;6609;49.882;8.664;2022-12-18T11:57:03;-0.50;51.80
13086;DHT22;6609;49.882;8.664;2022-12-18T12:02:18;-0.40;53.00
13086;DHT22;6609;49.882;8.664;2022-12-18T12:05:19;-0.40;53.60
13086;DHT22;6609;49.882;8.664;2022-12-18T12:07:58;-0.40;53.80
13086;DHT22;6609;49.882;8.664;2022-12-18T12:10:37;-0.60;54.30
13086;DHT22;6609;49.882;8.664;2022-12-18T12:13:20;-0.60;54.20
13086;DHT22;6609;49.882;8.664;2022-12-18T12:21:03;-1.00;54.60
13086;DHT22;6609;49.882;8.664;2022-12-18T12:23:39;-0.90;56.30
13086;DHT22;6609;49.882;8.664;2022-12-18T12:26:09;-1.00;56.20
13086;DHT22;6609;49.882;8.664;2022-12-18T12:28:51;-1.00;56.10
13086;DHT22;6609;49.882;8.664;2022-12-18T12:31:33;-1.00;55.80
13086;DHT22;6609;49.882;8.664;2022-12-18T12:34:09;-1.00;57.30
13086;DHT22;6609;49.882;8.664;2022-12-18T12:36:49;-1.30;59.70
13086;DHT22;6609;49.882;8.664;2022-12-18T12:39:20;-1.30;58.70
13086;DHT22;6609;49.882;8.664;2022-12-18T12:41:48;-1.30;59.20
13086;DHT22;6609;49.882;8.664;2022-12-18T12:44:37;-1.30;59.80
13086;DHT22;6609;49.882;8.664;2022-12-18T12:47:13;-1.40;59.40
13086;DHT22;6609;49.882;8.664;2022-12-18T12:49:44;-1.40;59.60
13086;DHT22;6609;49.882;8.664;2022-12-18T12:52:16;-1.30;60.00
13086;DHT22;6609;49.882;8.664;2022-12-18T12:54:44;-1.20;59.90
13086;DHT22;6609;49.882;8.664;2022-12-18T12:57:15;-1.40;59.10
13086;DHT22;6609;49.882;8.664;2022-12-18T12:59:49;-1.20;59.30
13086;DHT22;6609;49.882;8.664;2022-12-18T13:02:23;-1.10;60.00
13086;DHT22;6609;49.882;8.664;2022-12-18T13:04:57;-1.10;59.80
13086;DHT22;6609;49.882;8.664;2022-12-18T13:07:27;-1.20;60.00
13086;DHT22;6609;49.882;8.664;2022-12-18T13:10:23;-1.20;60.50
13086;DHT22;6609;49.882;8.664;2022-12-18T13:12:55;-1.20;63.50
13086;DHT22;6609;49.882;8.664;2022-12-18T13:15:22;-1.10;65.60
13086;DHT22;6609;49.882;8.664;2022-12-18T13:18:19;-1.10;63.60
13086;DHT22;6609;49.882;8.664;2022-12-18T13:20:47;-1.20;62.60
13086;DHT22;6609;49.882;8.664;2022-12-18T13:23:33;-1.20;62.10
13086;DHT22;6609;49.882;8.664;2022-12-18T13:26:30;-1.20;61.90
13086;DHT22;6609;49.882;8.664;2022-12-18T13:28:59;-1.10;61.90
13086;DHT22;6609;49.882;8.664;2022-12-18T13:34:36;-1.10;63.00
13086;DHT22;6609;49.882;8.664;2022-12-18T13:37:36;-1.20;63.40
13086;DHT22;6609;49.882;8.664;2022-12-18T13:48:20;-1.50;64.50
13086;DHT22;6609;49.882;8.664;2022-12-18T13:50:57;-1.50;65.00
13086;DHT22;6609;49.882;8.664;2022-12-18T13:53:28;-1.50;64.90
13086;DHT22;6609;49.882;8.664;2022-12-18T13:55:56;-1.50;65.30
13086;DHT22;6609;49.882;8.664;2022-12-18T13:58:23;-1.40;64.70
13086;DHT22;6609;49.882;8.664;2022-12-18T14:00:49;-1.40;65.10
13086;DHT22;6609;49.882;8.664;2022-12-18T14:03:22;-1.40;64.40
13086;DHT22;6609;49.882;8.664;2022-12-18T14:05:59;-1.40;65.20
13086;DHT22;6609;49.882;8.664;2022-12-18T14:08:32;-1.40;65.30
13086;DHT22;6609;49.882;8.664;2022-12-18T14:11:00;-1.30;65.30
13086;DHT22;6609;49.882;8.664;2022-12-18T14:13:30;-1.40;65.00
13086;DHT22;6609;49.882;8.664;2022-12-18T14:18:27;-1.30;65.10
13086;DHT22;6609;49.882;8.664;2022-12-18T14:21:00;-1.20;65.20
13086;DHT22;6609;49.882;8.664;2022-12-18T14:23:45;-1.20;65.80
13086;DHT22;6609;49.882;8.664;2022-12-18T14:26:22;-1.30;65.20
13086;DHT22;6609;49.882;8.664;2022-12-18T14:33:45;-1.30;65.50
13086;DHT22;6609;49.882;8.664;2022-12-18T14:36:16;-1.30;65.80
13086;DHT22;6609;49.882;8.664;2022-12-18T14:38:48;-1.40;66.30
13086;DHT22;6609;49.882;8.664;2022-12-18T14:41:16;-1.40;66.90
13086;DHT22;6609;49.882;8.664;2022-12-18T14:43:47;-1.40;66.90
13086;DHT22;6609;49.882;8.664;2022-12-18T14:46:33;-1.40;66.60
13086;DHT22;6609;49.882;8.664;2022-12-18T14:49:03;-1.40;67.10
13086;DHT22;6609;49.882;8.664;2022-12-18T14:51:33;-1.40;67.30
13086;DHT22;6609;49.882;8.664;2022-12-18T14:54:02;-1.40;66.60
13086;DHT22;6609;49.882;8.664;2022-12-18T14:56:30;-1.40;66.90
13086;DHT22;6609;49.882;8.664;2022-12-18T14:58:58;-1.40;66.70
13086;DHT22;6609;49.882;8.664;2022-12-18T15:01:28;-1.40;66.90
13086;DHT22;6609;49.882;8.664;2022-12-18T15:06:29;-1.50;67.50
13086;DHT22;6609;49.882;8.664;2022-12-18T15:08:59;-1.50;67.50
13086;DHT22;6609;49.882;8.664;2022-12-18T15:11:30;-1.50;68.30
13086;DHT22;6609;49.882;8.664;2022-12-18T15:13:58;-1.50;67.80
13086;DHT22;6609;49.882;8.664;2022-12-18T15:18:53;-1.40;67.70
13086;DHT22;6609;49.882;8.664;2022-12-18T15:21:20;-1.40;67.80
13086;DHT22;6609;49.882;8.664;2022-12-18T15:23:49;-1.40;67.90
13086;DHT22;6609;49.882;8.664;2022-12-18T15:26:19;-1.50;68.20
13086;DHT22;6609;49.882;8.664;2022-12-18T15:28:48;-1.50;68.30
13086;DHT22;6609;49.882;8.664;2022-12-18T15:31:24;-1.50;69.00
13086;DHT22;6609;49.882;8.664;2022-12-18T15:34:09;-1.50;69.20
13086;DHT22;6609;49.882;8.664;2022-12-18T15:36:38;-1.50;68.80
13086;DHT22;6609;49.882;8.664;2022-12-18T15:39:05;-1.50;68.60
13086;DHT22;6609;49.882;8.664;2022-12-18T15:41:34;-1.40;68.80
13086;DHT22;6609;49.882;8.664;2022-12-18T15:44:02;-1.40;68.80
13086;DHT22;6609;49.882;8.664;2022-12-18T15:46:28;-1.40;68.90
13086;DHT22;6609;49.882;8.664;2022-12-18T15:48:57;-1.40;69.50
13086;DHT22;6609;49.882;8.664;2022-12-18T15:51:27;-1.40;68.80
13086;DHT22;6609;49.882;8.664;2022-12-18T15:53:56;-1.40;69.60
13086;DHT22;6609;49.882;8.664;2022-12-18T15:56:25;-1.50;68.80
13086;DHT22;6609;49.882;8.664;2022-12-18T15:59:12;-1.50;68.80
13086;DHT22;6609;49.882;8.664;2022-12-18T16:01:39;-1.50;69.90
13086;DHT22;6609;49.882;8.664;2022-12-18T16:04:09;-1.50;69.20
13086;DHT22;6609;49.882;8.664;2022-12-18T16:06:37;-1.50;69.70
13086;DHT22;6609;49.882;8.664;2022-12-18T16:09:03;-1.50;70.20
13086;DHT22;6609;49.882;8.664;2022-12-18T16:11:32;-1.50;69.40
13086;DHT22;6609;49.882;8.664;2022-12-18T16:16:39;-1.40;70.00
13086;DHT22;6609;49.882;8.664;2022-12-18T16:19:10;-1.50;69.80
13086;DHT22;6609;49.882;8.664;2022-12-18T16:21:36;-1.50;69.70
13086;DHT22;6609;49.882;8.664;2022-12-18T16:26:32;-1.40;69.90
13086;DHT22;6609;49.882;8.664;2022-12-18T16:28:58;-1.40;69.80
13086;DHT22;6609;49.882;8.664;2022-12-18T16:31:33;-1.40;69.70
13086;DHT22;6609;49.882;8.664;2022-12-18T16:34:12;-1.40;69.80
13086;DHT22;6609;49.882;8.664;2022-12-18T16:36:39;-1.40;69.80
13086;DHT22;6609;49.882;8.664;2022-12-18T16:39:05;-1.40;70.30
13086;DHT22;6609;49.882;8.664;2022-12-18T16:41:32;-1.40;69.70
13086;DHT22;6609;49.882;8.664;2022-12-18T16:43:59;-1.40;69.80
13086;DHT22;6609;49.882;8.664;2022-12-18T16:46:26;-1.40;69.80
13086;DHT22;6609;49.882;8.664;2022-12-18T16:48:53;-1.40;69.80
13086;DHT22;6609;49.882;8.664;2022-12-18T16:51:21;-1.30;70.00
13086;DHT22;6609;49.882;8.664;2022-12-18T16:53:48;-1.30;69.90
13086;DHT22;6609;49.882;8.664;2022-12-18T16:56:14;-1.30;69.90
13086;DHT22;6609;49.882;8.664;2022-12-18T16:58:41;-1.30;70.00
13086;DHT22;6609;49.882;8.664;2022-12-18T17:01:09;-1.30;69.90
13086;DHT22;6609;49.882;8.664;2022-12-18T17:03:35;-1.30;69.90
13086;DHT22;6609;49.882;8.664;2022-12-18T17:06:03;-1.40;69.80
13086;DHT22;6609;49.882;8.664;2022-12-18T17:08:31;-1.30;70.10
13086;DHT22;6609;49.882;8.664;2022-12-18T17:11:03;-1.30;70.10